sensor_id;sensor_type;location;lat;lon;timestamp;pressure;altitude;pressure_sealevel;temperature;humidity
39897;BME280;25567;48.276;14.242;2023-01-27T00:01:14;98514.31;;;-0.62;100.00
39897;BME280;25567;48.276;14.242;2023-01-27T00:03:42;98515.94;;;-0.61;100.00
39897;BME280;25567;48.276;14.242;2023-01-27T00:06:08;98520.47;;;-0.63;100.00
39897;BME280;25567;48.276;14.242;2023-01-27T00:08:37;98522.28;;;-0.63;100.00
39897;BME280;25567;48.276;14.242;2023-01-27T00:11:04;98524.88;;;-0.63;100.00
39897;BME280;25567;48.276;14.242;2023-01-27T00:13:46;98524.22;;;-0.65;100.00
39897;BME280;25567;48.276;14.242;2023-01-27T00:16:13;98517.69;;;-0.70;100.00
39897;BME280;25567;48.276;14.242;2023-01-27T00:18:39;98531.50;;;-0.69;100.00
39897;BME280;25567;48.276;14.242;2023-01-27T00:21:06;98522.72;;;-0.68;100.00
39897;BME280;25567;48.276;14.242;2023-01-27T00:23:48;98521.59;;;-0.65;100.00
39897;BME280;25567;48.276;14.242;2023-01-27T00:26:34;98526.19;;;-0.68;100.00
39897;BME280;25567;48.276;14.242;2023-01-27T00:29:01;98513.97;;;-0.67;100.00
39897;BME280;25567;48.276;14.242;2023-01-27T00:31:27;98523.91;;;-0.62;100.00
39897;BME280;25567;48.276;14.242;2023-01-27T00:34:09;98520.66;;;-0.64;100.00
39897;BME280;25567;48.276;14.242;2023-01-27T00:36:38;98525.53;;;-0.61;100.00
39897;BME280;25567;48.276;14.242;2023-01-27T00:39:07;98524.06;;;-0.64;100.00
39897;BME280;25567;48.276;14.242;2023-01-27T00:41:40;98522.44;;;-0.65;100.00
39897;BME280;25567;48.276;14.242;2023-01-27T00:44:07;98525.84;;;-0.64;100.00
39897;BME280;25567;48.276;14.242;2023-01-27T00:46:39;98518.91;;;-0.56;100.00
39897;BME280;25567;48.276;14.242;2023-01-27T00:49:06;98511.03;;;-0.64;100.00
39897;BME280;25567;48.276;14.242;2023-01-27T00:51:32;98515.63;;;-0.58;100.00
39897;BME280;25567;48.276;14.242;2023-01-27T00:53:59;98519.22;;;-0.51;100.00
39897;BME280;25567;48.276;14.242;2023-01-27T00:56:28;98514.81;;;-0.58;100.00
39897;BME280;25567;48.276;14.242;2023-01-27T00:58:55;98518.69;;;-0.62;100.00
39897;BME280;25567;48.276;14.242;2023-01-27T01:01:22;98514.00;;;-0.59;100.00
39897;BME280;25567;48.276;14.242;2023-01-27T01:03:49;98518.09;;;-0.48;100.00
39897;BME280;25567;48.276;14.242;2023-01-27T01:06:17;98514.88;;;-0.42;100.00
39897;BME280;25567;48.276;14.242;2023-01-27T01:08:45;98514.69;;;-0.48;100.00
39897;BME280;25567;48.276;14.242;2023-01-27T01:11:14;98515.63;;;-0.58;100.00
39897;BME280;25567;48.276;14.242;2023-01-27T01:13:42;98521.66;;;-0.57;100.00
39897;BME280;25567;48.276;14.242;2023-01-27T01:16:13;98515.81;;;-0.51;100.00
39897;BME280;25567;48.276;14.242;2023-01-27T01:18:41;98518.59;;;-0.53;100.00
39897;BME280;25567;48.276;14.242;2023-01-27T01:21:08;98509.41;;;-0.65;100.00
39897;BME280;25567;48.276;14.242;2023-01-27T01:23:38;98511.19;;;-0.65;100.00
39897;BME280;25567;48.276;14.242;2023-01-27T01:26:05;98509.56;;;-0.67;100.00
39897;BME280;25567;48.276;14.242;2023-01-27T01:28:32;98516.56;;;-0.67;100.00
39897;BME280;25567;48.276;14.242;2023-01-27T01:31:09;98515.75;;;-0.68;100.00
39897;BME280;25567;48.276;14.242;2023-01-27T01:33:37;98520.16;;;-0.60;100.00
39897;BME280;25567;48.276;14.242;2023-01-27T01:36:06;98529.59;;;-0.67;100.00
39897;BME280;25567;48.276;14.242;2023-01-27T01:38:34;98522.56;;;-0.67;100.00
39897;BME280;25567;48.276;14.242;2023-01-27T01:41:01;98521.78;;;-0.67;100.00
39897;BME280;25567;48.276;14.242;2023-01-27T01:43:27;98515.75;;;-0.68;100.00
39897;BME280;25567;48.276;14.242;2023-01-27T01:45:56;98513.16;;;-0.68;100.00
39897;BME280;25567;48.276;14.242;2023-01-27T01:56:41;98515.75;;;-0.68;100.00
39897;BME280;25567;48.276;14.242;2023-01-27T01:59:14;98513.44;;;-0.71;100.00
39897;BME280;25567;48.276;14.242;2023-01-27T02:01:42;98511.78;;;-0.72;100.00
39897;BME280;25567;48.276;14.242;2023-01-27T02:04:16;98510.19;;;-0.73;100.00
39897;BME280;25567;48.276;14.242;2023-01-27T02:07:02;98499.41;;;-0.78;100.00
39897;BME280;25567;48.276;14.242;2023-01-27T02:09:30;98504.97;;;-0.73;100.00
39897;BME280;25567;48.276;14.242;2023-01-27T02:11:57;98508.38;;;-0.72;100.00
39897;BME280;25567;48.276;14.242;2023-01-27T02:14:24;98503.03;;;-0.71;100.00
39897;BME280;25567;48.276;14.242;2023-01-27T02:16:51;98505.47;;;-0.69;100.00
39897;BME280;25567;48.276;14.242;2023-01-27T02:19:24;98506.31;;;-0.69;100.00
39897;BME280;25567;48.276;14.242;2023-01-27T02:21:54;98500.41;;;-0.71;100.00
39897;BME280;25567;48.276;14.242;2023-01-27T02:24:31;98499.78;;;-0.73;100.00
39897;BME280;25567;48.276;14.242;2023-01-27T02:26:59;98502.41;;;-0.64;100.00
39897;BME280;25567;48.276;14.242;2023-01-27T02:29:26;98500.59;;;-0.64;100.00
39897;BME280;25567;48.276;14.242;2023-01-27T02:31:54;98503.22;;;-0.64;100.00
39897;BME280;25567;48.276;14.242;2023-01-27T02:34:25;98492.31;;;-0.68;100.00
39897;BME280;25567;48.276;14.242;2023-01-27T02:36:56;98496.69;;;-0.68;100.00
39897;BME280;25567;48.276;14.242;2023-01-27T02:39:27;98495.19;;;-0.71;100.00
39897;BME280;25567;48.276;14.242;2023-01-27T02:41:55;98495.41;;;-0.64;100.00
39897;BME280;25567;48.276;14.242;2023-01-27T02:44:23;98496.03;;;-0.70;100.00
39897;BME280;25567;48.276;14.242;2023-01-27T02:46:49;98500.78;;;-0.65;100.00
39897;BME280;25567;48.276;14.242;2023-01-27T02:49:16;98498.78;;;-0.72;100.00
39897;BME280;25567;48.276;14.242;2023-01-27T02:51:42;98497.81;;;-0.71;100.00
39897;BME280;25567;48.276;14.242;2023-01-27T02:54:09;98500.06;;;-0.76;100.00
39897;BME280;25567;48.276;14.242;2023-01-27T02:56:36;98503.34;;;-0.74;100.00
39897;BME280;25567;48.276;14.242;2023-01-27T02:59:02;98502.66;;;-0.76;100.00
39897;BME280;25567;48.276;14.242;2023-01-27T03:01:29;98505.78;;;-0.72;100.00
39897;BME280;25567;48.276;14.242;2023-01-27T03:03:58;98503.34;;;-0.74;100.00
39897;BME280;25567;48.276;14.242;2023-01-27T03:06:25;98507.09;;;-0.68;100.00
39897;BME280;25567;48.276;14.242;2023-01-27T03:08:51;98510.34;;;-0.74;100.00
39897;BME280;25567;48.276;14.242;2023-01-27T03:11:18;98506.91;;;-0.75;100.00
39897;BME280;25567;48.276;14.242;2023-01-27T03:14:07;98509.19;;;-0.72;100.00
39897;BME280;25567;48.276;14.242;2023-01-27T03:16:34;98502.38;;;-0.73;100.00
39897;BME280;25567;48.276;14.242;2023-01-27T03:19:15;98502.38;;;-0.73;100.00
39897;BME280;25567;48.276;14.242;2023-01-27T03:21:42;98505.94;;;-0.74;100.00
39897;BME280;25567;48.276;14.242;2023-01-27T03:24:10;98498.44;;;-0.77;100.00
39897;BME280;25567;48.276;14.242;2023-01-27T03:26:37;98505.63;;;-0.71;100.00
39897;BME280;25567;48.276;14.242;2023-01-27T03:29:04;98509.19;;;-0.72;100.00
39897;BME280;25567;48.276;14.242;2023-01-27T03:31:45;98504.16;;;-0.73;100.00
39897;BME280;25567;48.276;14.242;2023-01-27T03:34:12;98504.97;;;-0.73;100.00
39897;BME280;25567;48.276;14.242;2023-01-27T03:36:39;98501.72;;;-0.67;100.00
39897;BME280;25567;48.276;14.242;2023-01-27T03:39:21;98499.47;;;-0.61;100.00
39897;BME280;25567;48.276;14.242;2023-01-27T03:42:03;98504.34;;;-0.67;100.00
39897;BME280;25567;48.276;14.242;2023-01-27T03:44:44;98495.97;;;-0.44;100.00
39897;BME280;25567;48.276;14.242;2023-01-27T03:47:26;98497.03;;;-0.63;100.00
39897;BME280;25567;48.276;14.242;2023-01-27T03:49:53;98492.75;;;-0.72;100.00
39897;BME280;25567;48.276;14.242;2023-01-27T03:52:20;98499.59;;;-0.71;100.00
39897;BME280;25567;48.276;14.242;2023-01-27T03:54:46;98497.09;;;-0.81;100.00
39897;BME280;25567;48.276;14.242;2023-01-27T03:57:14;98491.28;;;-0.75;100.00
39897;BME280;25567;48.276;14.242;2023-01-27T03:59:40;98484.00;;;-0.63;100.00
39897;BME280;25567;48.276;14.242;2023-01-27T04:02:07;98486.44;;;-0.70;100.00
39897;BME280;25567;48.276;14.242;2023-01-27T04:04:49;98485.91;;;-0.73;100.00
39897;BME280;25567;48.276;14.242;2023-01-27T04:07:34;98485.47;;;-0.69;100.00
39897;BME280;25567;48.276;14.242;2023-01-27T04:10:03;98489.00;;;-0.78;100.00
39897;BME280;25567;48.276;14.242;2023-01-27T04:12:30;98490.84;;;-0.70;100.00
39897;BME280;25567;48.276;14.242;2023-01-27T04:14:57;98489.00;;;-0.78;100.00
39897;BME280;25567;48.276;14.242;2023-01-27T04:17:24;98489.97;;;-0.79;100.00
39897;BME280;25567;48.276;14.242;2023-01-27T04:19:50;98501.66;;;-0.83;100.00
39897;BME280;25567;48.276;14.242;2023-01-27T04:22:17;98498.75;;;-0.80;100.00
39897;BME280;25567;48.276;14.242;2023-01-27T04:24:44;98500.53;;;-0.80;100.00
39897;BME280;25567;48.276;14.242;2023-01-27T04:27:12;98493.69;;;-0.81;100.00
39897;BME280;25567;48.276;14.242;2023-01-27T04:29:41;98496.44;;;-0.83;100.00
39897;BME280;25567;48.276;14.242;2023-01-27T04:32:09;98501.97;;;-0.86;100.00
39897;BME280;25567;48.276;14.242;2023-01-27T04:34:37;98502.25;;;-0.89;100.00
39897;BME280;25567;48.276;14.242;2023-01-27T04:37:06;98509.91;;;-0.88;100.00
39897;BME280;25567;48.276;14.242;2023-01-27T04:39:33;98502.63;;;-0.84;100.00
39897;BME280;25567;48.276;14.242;2023-01-27T04:42:07;98499.69;;;-0.81;100.00
39897;BME280;25567;48.276;14.242;2023-01-27T04:44:33;98502.63;;;-0.84;100.00
39897;BME280;25567;48.276;14.242;2023-01-27T04:47:00;98500.03;;;-0.84;100.00
39897;BME280;25567;48.276;14.242;2023-01-27T04:49:27;98505.91;;;-0.82;100.00
39897;BME280;25567;48.276;14.242;2023-01-27T04:51:54;98512.44;;;-0.78;100.00
39897;BME280;25567;48.276;14.242;2023-01-27T04:54:21;98498.75;;;-0.80;100.00
39897;BME280;25567;48.276;14.242;2023-01-27T04:56:57;98493.38;;;-0.78;100.00
39897;BME280;25567;48.276;14.242;2023-01-27T04:59:25;98488.47;;;-0.81;100.00
39897;BME280;25567;48.276;14.242;2023-01-27T05:01:51;98489.28;;;-0.81;100.00
39897;BME280;25567;48.276;14.242;2023-01-27T05:04:18;98481.22;;;-0.70;100.00
39897;BME280;25567;48.276;14.242;2023-01-27T05:06:45;98482.03;;;-0.69;100.00
39897;BME280;25567;48.276;14.242;2023-01-27T05:09:11;98477.13;;;-0.72;100.00
39897;BME280;25567;48.276;14.242;2023-01-27T05:11:38;98481.34;;;-0.79;100.00
39897;BME280;25567;48.276;14.242;2023-01-27T05:14:05;98486.03;;;-0.83;100.00
39897;BME280;25567;48.276;14.242;2023-01-27T05:16:32;98487.47;;;-0.89;100.00
39897;BME280;25567;48.276;14.242;2023-01-27T05:18:58;98486.78;;;-0.91;100.00
39897;BME280;25567;48.276;14.242;2023-01-27T05:21:25;98475.94;;;-0.86;100.00
39897;BME280;25567;48.276;14.242;2023-01-27T05:23:56;98472.66;;;-0.88;100.00
39897;BME280;25567;48.276;14.242;2023-01-27T05:26:25;98484.72;;;-0.87;100.00
39897;BME280;25567;48.276;14.242;2023-01-27T05:28:54;98485.34;;;-0.85;100.00
39897;BME280;25567;48.276;14.242;2023-01-27T05:31:24;98489.75;;;-0.86;100.00
39897;BME280;25567;48.276;14.242;2023-01-27T05:33:52;98471.38;;;-0.84;100.00
39897;BME280;25567;48.276;14.242;2023-01-27T05:36:21;98481.78;;;-0.84;100.00
39897;BME280;25567;48.276;14.242;2023-01-27T05:38:48;98482.63;;;-0.83;100.00
39897;BME280;25567;48.276;14.242;2023-01-27T05:41:16;98492.25;;;-0.76;100.00
39897;BME280;25567;48.276;14.242;2023-01-27T05:43:45;98497.16;;;-0.73;100.00
39897;BME280;25567;48.276;14.242;2023-01-27T05:46:14;98494.19;;;-0.78;100.00
39897;BME280;25567;48.276;14.242;2023-01-27T05:48:43;98495.66;;;-0.83;100.00
39897;BME280;25567;48.276;14.242;2023-01-27T05:51:11;98500.53;;;-0.80;100.00
39897;BME280;25567;48.276;14.242;2023-01-27T05:53:40;98499.38;;;-0.86;100.00
39897;BME280;25567;48.276;14.242;2023-01-27T05:56:09;98499.50;;;-0.88;100.00
39897;BME280;25567;48.276;14.242;2023-01-27T05:58:37;98504.06;;;-0.90;100.00
39897;BME280;25567;48.276;14.242;2023-01-27T06:03:33;98516.00;;;-0.79;100.00
39897;BME280;25567;48.276;14.242;2023-01-27T06:06:00;98514.53;;;-0.81;100.00
39897;BME280;25567;48.276;14.242;2023-01-27T06:08:27;98524.34;;;-0.75;100.00
39897;BME280;25567;48.276;14.242;2023-01-27T06:10:53;98529.75;;;-0.69;100.00
39897;BME280;25567;48.276;14.242;2023-01-27T06:13:21;98531.06;;;-0.64;100.00
39897;BME280;25567;48.276;14.242;2023-01-27T06:15:49;98532.94;;;-0.48;100.00
39897;BME280;25567;48.276;14.242;2023-01-27T06:18:17;98532.13;;;-0.49;100.00
39897;BME280;25567;48.276;14.242;2023-01-27T06:20:45;98535.66;;;-0.58;100.00
39897;BME280;25567;48.276;14.242;2023-01-27T06:23:13;98531.06;;;-0.64;100.00
39897;BME280;25567;48.276;14.242;2023-01-27T06:25:43;98533.84;;;-0.66;100.00
39897;BME280;25567;48.276;14.242;2023-01-27T06:28:10;98533.28;;;-0.78;100.00
39897;BME280;25567;48.276;14.242;2023-01-27T06:30:52;98538.44;;;-0.86;100.00
39897;BME280;25567;48.276;14.242;2023-01-27T06:33:19;98533.56;;;-0.81;100.00
39897;BME280;25567;48.276;14.242;2023-01-27T06:35:45;98520.50;;;-0.89;100.00
39897;BME280;25567;48.276;14.242;2023-01-27T06:38:12;98528.97;;;-0.87;100.00
39897;BME280;25567;48.276;14.242;2023-01-27T06:40:41;98532.72;;;-0.90;100.00
39897;BME280;25567;48.276;14.242;2023-01-27T06:43:12;98534.03;;;-0.86;100.00
39897;BME280;25567;48.276;14.242;2023-01-27T06:45:39;98533.06;;;-0.85;100.00
39897;BME280;25567;48.276;14.242;2023-01-27T06:48:06;98540.03;;;-0.85;100.00
39897;BME280;25567;48.276;14.242;2023-01-27T06:50:34;98548.53;;;-0.83;100.00
39897;BME280;25567;48.276;14.242;2023-01-27T06:53:04;98556.00;;;-0.88;100.00
39897;BME280;25567;48.276;14.242;2023-01-27T06:55:31;98555.31;;;-0.90;100.00
39897;BME280;25567;48.276;14.242;2023-01-27T06:58:00;98556.81;;;-0.61;100.00
39897;BME280;25567;48.276;14.242;2023-01-27T07:00:27;98565.25;;;-0.68;100.00
39897;BME280;25567;48.276;14.242;2023-01-27T07:02:54;98562.88;;;-0.79;100.00
39897;BME280;25567;48.276;14.242;2023-01-27T07:05:21;98557.34;;;-0.76;100.00
39897;BME280;25567;48.276;14.242;2023-01-27T07:07:48;98566.94;;;-0.85;100.00
39897;BME280;25567;48.276;14.242;2023-01-27T07:10:15;98571.28;;;-0.85;100.00
39897;BME280;25567;48.276;14.242;2023-01-27T07:12:42;98573.25;;;-0.87;100.00
39897;BME280;25567;48.276;14.242;2023-01-27T07:15:09;98568.84;;;-0.87;100.00
39897;BME280;25567;48.276;14.242;2023-01-27T07:17:36;98575.84;;;-0.87;100.00
39897;BME280;25567;48.276;14.242;2023-01-27T07:20:04;98575.75;;;-0.77;100.00
39897;BME280;25567;48.276;14.242;2023-01-27T07:22:31;98582.59;;;-0.76;100.00
39897;BME280;25567;48.276;14.242;2023-01-27T07:24:58;98581.44;;;-0.82;100.00
39897;BME280;25567;48.276;14.242;2023-01-27T07:27:25;98590.22;;;-0.83;100.00
39897;BME280;25567;48.276;14.242;2023-01-27T07:29:51;98581.06;;;-0.87;100.00
39897;BME280;25567;48.276;14.242;2023-01-27T07:32:18;98579.78;;;-0.83;100.00
39897;BME280;25567;48.276;14.242;2023-01-27T07:34:44;98585.16;;;-0.85;100.00
39897;BME280;25567;48.276;14.242;2023-01-27T07:37:12;98586.31;;;-0.79;100.00
39897;BME280;25567;48.276;14.242;2023-01-27T07:39:39;98583.97;;;-0.64;100.00
39897;BME280;25567;48.276;14.242;2023-01-27T07:42:07;98575.72;;;-0.59;100.00
39897;BME280;25567;48.276;14.242;2023-01-27T07:44:33;98583.97;;;-0.64;100.00
39897;BME280;25567;48.276;14.242;2023-01-27T07:47:00;98584.59;;;-0.70;100.00
39897;BME280;25567;48.276;14.242;2023-01-27T07:49:27;98585.22;;;-0.76;100.00
39897;BME280;25567;48.276;14.242;2023-01-27T07:51:53;98594.50;;;-0.74;100.00
39897;BME280;25567;48.276;14.242;2023-01-27T07:54:20;98598.22;;;-0.76;100.00
39897;BME280;25567;48.276;14.242;2023-01-27T07:56:46;98592.50;;;-0.80;100.00
39897;BME280;25567;48.276;14.242;2023-01-27T07:59:13;98596.59;;;-0.77;100.00
39897;BME280;25567;48.276;14.242;2023-01-27T08:01:40;98600.31;;;-0.80;100.00
39897;BME280;25567;48.276;14.242;2023-01-27T08:04:07;98599.34;;;-0.79;100.00
39897;BME280;25567;48.276;14.242;2023-01-27T08:06:37;98597.22;;;-0.83;100.00
39897;BME280;25567;48.276;14.242;2023-01-27T08:09:05;98612.03;;;-0.58;100.00
39897;BME280;25567;48.276;14.242;2023-01-27T08:11:32;98604.66;;;-0.62;100.00
39897;BME280;25567;48.276;14.242;2023-01-27T08:13:59;98611.56;;;-0.53;100.00
39897;BME280;25567;48.276;14.242;2023-01-27T08:16:26;98608.91;;;-0.61;100.00
39897;BME280;25567;48.276;14.242;2023-01-27T08:18:53;98605.13;;;-0.67;100.00
39897;BME280;25567;48.276;14.242;2023-01-27T08:21:20;98603.19;;;-0.39;100.00
39897;BME280;25567;48.276;14.242;2023-01-27T08:23:47;98594.56;;;-0.39;100.00
39897;BME280;25567;48.276;14.242;2023-01-27T08:26:13;98595.38;;;-0.39;100.00
39897;BME280;25567;48.276;14.242;2023-01-27T08:28:40;98599.88;;;-0.49;100.00
39897;BME280;25567;48.276;14.242;2023-01-27T08:31:09;98603.53;;;-0.60;100.00
39897;BME280;25567;48.276;14.242;2023-01-27T08:33:37;98605.38;;;-0.52;100.00
39897;BME280;25567;48.276;14.242;2023-01-27T08:36:08;98592.63;;;-0.63;100.00
39897;BME280;25567;48.276;14.242;2023-01-27T08:38:36;98594.88;;;-0.42;100.00
39897;BME280;25567;48.276;14.242;2023-01-27T08:41:05;98601.09;;;-0.61;100.00
39897;BME280;25567;48.276;14.242;2023-01-27T08:43:39;98597.00;;;-0.64;100.00
39897;BME280;25567;48.276;14.242;2023-01-27T08:46:06;98601.03;;;-0.70;100.00
39897;BME280;25567;48.276;14.242;2023-01-27T08:48:33;98600.72;;;-0.67;100.00
39897;BME280;25567;48.276;14.242;2023-01-27T08:51:01;98596.78;;;-0.71;100.00
39897;BME280;25567;48.276;14.242;2023-01-27T08:53:28;98598.66;;;-0.63;100.00
39897;BME280;25567;48.276;14.242;2023-01-27T08:55:56;98602.06;;;-0.62;100.00
39897;BME280;25567;48.276;14.242;2023-01-27T08:58:24;98607.19;;;-0.53;100.00
39897;BME280;25567;48.276;14.242;2023-01-27T09:00:51;98599.22;;;-0.51;100.00
39897;BME280;25567;48.276;14.242;2023-01-27T09:03:17;98608.50;;;-0.48;100.00
39897;BME280;25567;48.276;14.242;2023-01-27T09:05:46;98605.69;;;-0.55;100.00
39897;BME280;25567;48.276;14.242;2023-01-27T09:08:12;98612.06;;;-0.49;100.00
39897;BME280;25567;48.276;14.242;2023-01-27T09:10:40;98613.84;;;-0.58;100.00
39897;BME280;25567;48.276;14.242;2023-01-27T09:13:07;98610.91;;;-0.55;100.00
39897;BME280;25567;48.276;14.242;2023-01-27T09:15:35;98612.41;;;-0.53;100.00
39897;BME280;25567;48.276;14.242;2023-01-27T09:18:03;98610.44;;;-0.51;100.00
39897;BME280;25567;48.276;14.242;2023-01-27T09:20:32;98617.97;;;-0.47;100.00
39897;BME280;25567;48.276;14.242;2023-01-27T09:23:00;98622.13;;;-0.55;100.00
39897;BME280;25567;48.276;14.242;2023-01-27T09:25:27;98615.38;;;-0.47;100.00
39897;BME280;25567;48.276;14.242;2023-01-27T09:27:54;98622.22;;;-0.46;100.00
39897;BME280;25567;48.276;14.242;2023-01-27T09:30:22;98623.94;;;-0.55;100.00
39897;BME280;25567;48.276;14.242;2023-01-27T09:32:49;98627.34;;;-0.55;100.00
39897;BME280;25567;48.276;14.242;2023-01-27T09:35:17;98626.91;;;-0.50;100.00
39897;BME280;25567;48.276;14.242;2023-01-27T09:37:49;98632.13;;;-0.50;100.00
39897;BME280;25567;48.276;14.242;2023-01-27T09:40:36;98630.47;;;-0.51;100.00
39897;BME280;25567;48.276;14.242;2023-01-27T09:48:56;98622.63;;;-0.59;100.00
39897;BME280;25567;48.276;14.242;2023-01-27T09:59:38;98629.00;;;-0.54;100.00
39897;BME280;25567;48.276;14.242;2023-01-27T10:02:23;98621.97;;;-0.53;100.00
39897;BME280;25567;48.276;14.242;2023-01-27T10:05:05;98627.91;;;-0.43;100.00
39897;BME280;25567;48.276;14.242;2023-01-27T10:11:14;98626.59;;;-0.47;100.00
39897;BME280;25567;48.276;14.242;2023-01-27T10:27:23;98611.91;;;-0.48;100.00
39897;BME280;25567;48.276;14.242;2023-01-27T10:30:07;98612.28;;;-0.43;100.00
39897;BME280;25567;48.276;14.242;2023-01-27T10:35:23;98616.31;;;-0.48;100.00
39897;BME280;25567;48.276;14.242;2023-01-27T10:38:13;98610.59;;;-0.52;100.00
39897;BME280;25567;48.276;14.242;2023-01-27T10:48:40;98592.19;;;-0.51;100.00
39897;BME280;25567;48.276;14.242;2023-01-27T10:51:33;98598.88;;;-0.48;100.00
39897;BME280;25567;48.276;14.242;2023-01-27T10:56:40;98598.59;;;-0.45;100.00
39897;BME280;25567;48.276;14.242;2023-01-27T10:59:29;98593.03;;;-0.50;100.00
39897;BME280;25567;48.276;14.242;2023-01-27T11:02:03;98592.06;;;-0.49;100.00
39897;BME280;25567;48.276;14.242;2023-01-27T11:04:38;98589.91;;;-0.54;100.00
39897;BME280;25567;48.276;14.242;2023-01-27T11:07:15;98596.25;;;-0.56;100.00
39897;BME280;25567;48.276;14.242;2023-01-27T11:12:14;98599.06;;;-0.49;100.00
39897;BME280;25567;48.276;14.242;2023-01-27T11:14:49;98593.19;;;-0.52;100.00
39897;BME280;25567;48.276;14.242;2023-01-27T11:17:36;98595.94;;;-0.53;100.00
39897;BME280;25567;48.276;14.242;2023-01-27T11:20:30;98593.00;;;-0.58;100.00
39897;BME280;25567;48.276;14.242;2023-01-27T11:31:33;98591.59;;;-0.44;100.00
39897;BME280;25567;48.276;14.242;2023-01-27T11:36:46;98583.53;;;-0.33;100.00
39897;BME280;25567;48.276;14.242;2023-01-27T11:39:15;98586.78;;;-0.31;100.00
39897;BME280;25567;48.276;14.242;2023-01-27T11:41:49;98584.44;;;-0.42;100.00
39897;BME280;25567;48.276;14.242;2023-01-27T11:44:20;98585.13;;;-0.32;100.00
39897;BME280;25567;48.276;14.242;2023-01-27T11:46:48;98591.78;;;-0.38;100.00
39897;BME280;25567;48.276;14.242;2023-01-27T11:49:20;98585.72;;;-0.46;100.00
39897;BME280;25567;48.276;14.242;2023-01-27T11:51:47;98589.78;;;-0.44;100.00
39897;BME280;25567;48.276;14.242;2023-01-27T11:56:47;98579.38;;;-0.44;100.00
39897;BME280;25567;48.276;14.242;2023-01-27T11:59:22;98575.78;;;-0.43;100.00
39897;BME280;25567;48.276;14.242;2023-01-27T12:01:58;98576.63;;;-0.42;100.00
39897;BME280;25567;48.276;14.242;2023-01-27T12:04:44;98584.94;;;-0.39;100.00
39897;BME280;25567;48.276;14.242;2023-01-27T12:07:23;98579.78;;;-0.30;100.00
39897;BME280;25567;48.276;14.242;2023-01-27T12:09:53;98571.34;;;-0.16;100.00
39897;BME280;25567;48.276;14.242;2023-01-27T12:12:23;98574.91;;;-0.25;100.00
39897;BME280;25567;48.276;14.242;2023-01-27T12:17:37;98569.63;;;0.01;100.00
39897;BME280;25567;48.276;14.242;2023-01-27T12:22:44;98562.94;;;-0.02;100.00
39897;BME280;25567;48.276;14.242;2023-01-27T12:25:20;98556.72;;;-0.09;100.00
39897;BME280;25567;48.276;14.242;2023-01-27T12:27:51;98561.63;;;-0.06;100.00
39897;BME280;25567;48.276;14.242;2023-01-27T12:30:21;98564.91;;;-0.04;100.00
39897;BME280;25567;48.276;14.242;2023-01-27T12:32:49;98553.81;;;0.03;100.00
39897;BME280;25567;48.276;14.242;2023-01-27T12:35:21;98558.06;;;0.04;100.00
39897;BME280;25567;48.276;14.242;2023-01-27T12:37:55;98551.69;;;-0.02;100.00
39897;BME280;25567;48.276;14.242;2023-01-27T12:40:23;98552.84;;;0.04;100.00
39897;BME280;25567;48.276;14.242;2023-01-27T12:43:09;98560.84;;;0.02;100.00
39897;BME280;25567;48.276;14.242;2023-01-27T12:45:43;98549.13;;;0.14;100.00
39897;BME280;25567;48.276;14.242;2023-01-27T12:48:16;98552.59;;;0.23;100.00
39897;BME280;25567;48.276;14.242;2023-01-27T12:50:54;98548.16;;;0.15;100.00
39897;BME280;25567;48.276;14.242;2023-01-27T12:53:23;98544.59;;;0.16;100.00
39897;BME280;25567;48.276;14.242;2023-01-27T12:58:38;98550.44;;;0.10;100.00
39897;BME280;25567;48.276;14.242;2023-01-27T13:01:20;98547.34;;;0.15;100.00
39897;BME280;25567;48.276;14.242;2023-01-27T13:03:51;98543.72;;;0.08;100.00
39897;BME280;25567;48.276;14.242;2023-01-27T13:06:28;98550.59;;;0.09;100.00
39897;BME280;25567;48.276;14.242;2023-01-27T13:08:57;98549.94;;;0.07;100.00
39897;BME280;25567;48.276;14.242;2023-01-27T13:11:32;98547.03;;;0.18;100.00
39897;BME280;25567;48.276;14.242;2023-01-27T13:14:00;98548.16;;;0.15;100.00
39897;BME280;25567;48.276;14.242;2023-01-27T13:16:28;98542.78;;;0.17;100.00
39897;BME280;25567;48.276;14.242;2023-01-27T13:18:57;98546.88;;;0.28;100.00
39897;BME280;25567;48.276;14.242;2023-01-27T13:21:31;98538.09;;;0.29;100.00
39897;BME280;25567;48.276;14.242;2023-01-27T13:24:05;98547.56;;;0.38;100.00
39897;BME280;25567;48.276;14.242;2023-01-27T13:26:37;98548.69;;;0.36;100.00
39897;BME280;25567;48.276;14.242;2023-01-27T13:29:14;98551.13;;;0.29;100.00
39897;BME280;25567;48.276;14.242;2023-01-27T13:34:42;98554.53;;;0.21;100.00
39897;BME280;25567;48.276;14.242;2023-01-27T13:37:16;98560.44;;;0.40;100.00
39897;BME280;25567;48.276;14.242;2023-01-27T13:40:11;98560.94;;;0.35;100.00
39897;BME280;25567;48.276;14.242;2023-01-27T13:42:45;98560.25;;;0.33;100.00
39897;BME280;25567;48.276;14.242;2023-01-27T13:45:24;98564.34;;;0.27;100.00
39897;BME280;25567;48.276;14.242;2023-01-27T13:47:59;98561.09;;;0.25;100.00
39897;BME280;25567;48.276;14.242;2023-01-27T13:50:34;98561.41;;;0.30;100.00
39897;BME280;25567;48.276;14.242;2023-01-27T13:53:02;98566.31;;;0.25;100.00
39897;BME280;25567;48.276;14.242;2023-01-27T13:58:15;98570.34;;;0.20;100.00
39897;BME280;25567;48.276;14.242;2023-01-27T14:00:51;98568.41;;;0.22;100.00
39897;BME280;25567;48.276;14.242;2023-01-27T14:08:48;98585.22;;;0.36;100.00
39897;BME280;25567;48.276;14.242;2023-01-27T14:11:30;98576.25;;;0.30;100.00
39897;BME280;25567;48.276;14.242;2023-01-27T14:19:56;98576.75;;;0.33;100.00
39897;BME280;25567;48.276;14.242;2023-01-27T14:22:34;98583.28;;;0.29;100.00
39897;BME280;25567;48.276;14.242;2023-01-27T14:25:28;98575.13;;;0.32;100.00
39897;BME280;25567;48.276;14.242;2023-01-27T14:27:59;98576.75;;;0.42;100.00
39897;BME280;25567;48.276;14.242;2023-01-27T14:30:41;98576.44;;;0.45;100.00
39897;BME280;25567;48.276;14.242;2023-01-27T14:33:32;98572.38;;;0.51;100.00